Time;durP1;ratioP1;P1;durP2;ratioP2;P2;SDS_P1;SDS_P2;PMS_P1;PMS_P2;Temp;Humidity;BMP_temperature;BMP_pressure;BME280_temperature;BME280_humidity;BME280_pressure;Samples;Min_cycle;Max_cycle;Signal;HPM_P1;HPM_P2
2022/05/26 00:01:04;;;;;;;4.00;3.70;;;;;;;11.13;77.69;99842.78;214605;1274;140061;-63
2022/05/26 00:06:12;;;;;;;3.70;3.50;;;;;;;10.96;77.54;99837.00;214078;1274;140688;-62
2022/05/26 00:11:31;;;;;;;5.50;3.60;;;;;;;10.81;77.72;99833.30;213977;1273;141614;-62
2022/05/26 00:16:38;;;;;;;12.50;6.40;;;;;;;10.69;77.98;99824.84;214486;1273;139755;-61
2022/05/26 00:21:44;;;;;;;14.60;11.70;;;;;;;10.63;78.97;99821.30;215529;1274;140215;-63
2022/05/26 00:26:49;;;;;;;11.80;10.60;;;;;;;10.70;79.63;99823.16;213431;1274;140345;-65
2022/05/26 00:31:54;;;;;;;10.50;9.40;;;;;;;10.78;80.19;99822.15;215073;1274;141798;-63
2022/05/26 00:36:58;;;;;;;26.70;12.70;;;;;;;10.85;80.72;99818.98;214461;1274;140972;-64
2022/05/26 00:42:05;;;;;;;13.70;11.50;;;;;;;10.92;81.03;99815.09;215040;1274;141020;-63
2022/05/26 00:47:15;;;;;;;15.70;14.00;;;;;;;11.03;81.55;99810.95;216075;1274;140280;-63
2022/05/26 00:52:25;;;;;;;13.00;11.50;;;;;;;11.12;81.70;99808.94;215889;1271;141251;-63
2022/05/26 00:57:49;;;;;;;13.10;11.80;;;;;;;11.20;81.76;99809.94;214645;1272;140699;-63
2022/05/26 01:02:54;;;;;;;16.70;13.20;;;;;;;11.22;81.77;99805.04;215429;1274;140301;-62
2022/05/26 01:08:00;;;;;;;13.30;12.00;;;;;;;11.18;81.86;99804.69;216068;1271;140291;-62
2022/05/26 01:13:03;;;;;;;12.10;10.90;;;;;;;11.16;82.03;99806.61;216251;1274;140888;-62
2022/05/26 01:18:39;;;;;;;9.30;8.40;;;;;;;11.18;82.00;99803.98;216196;1273;141522;-62
2022/05/26 01:24:24;;;;;;;11.40;10.30;;;;;;;11.14;81.90;99799.65;215703;1274;141164;-62
2022/05/26 01:29:42;;;;;;;10.40;9.40;;;;;;;11.16;82.04;99802.98;215609;1273;140454;-63
2022/05/26 01:35:04;;;;;;;10.90;9.90;;;;;;;11.23;82.51;99797.32;214151;1274;140462;-62
2022/05/26 01:40:38;;;;;;;11.50;9.00;;;;;;;11.29;82.01;99795.36;214853;1274;141319;-62
2022/05/26 01:46:01;;;;;;;9.20;8.30;;;;;;;11.25;81.91;99805.41;214662;1273;141992;-64
2022/05/26 01:51:21;;;;;;;9.50;8.70;;;;;;;11.22;81.66;99811.98;214630;1272;144176;-65
2022/05/26 01:57:01;;;;;;;9.40;8.60;;;;;;;11.13;81.87;99804.52;214185;1273;141632;-62
2022/05/26 02:02:15;;;;;;;11.00;9.90;;;;;;;11.05;82.05;99799.14;213768;1274;140328;-63
2022/05/26 02:07:26;;;;;;;10.40;8.90;;;;;;;11.05;81.91;99808.91;214013;1274;141339;-64
2022/05/26 02:12:41;;;;;;;10.10;9.20;;;;;;;11.05;81.93;99807.63;214010;1274;142022;-63
2022/05/26 02:17:51;;;;;;;11.40;9.50;;;;;;;11.04;82.03;99806.37;213874;1274;140955;-61
2022/05/26 02:23:06;;;;;;;10.30;9.40;;;;;;;11.04;82.07;99806.38;214008;1273;141766;-62
2022/05/26 02:28:10;;;;;;;10.30;9.40;;;;;;;11.01;81.89;99802.48;214910;1273;140534;-66
2022/05/26 02:33:16;;;;;;;11.60;10.10;;;;;;;10.90;81.83;99802.20;215074;1273;140489;-62
2022/05/26 02:38:23;;;;;;;10.50;9.40;;;;;;;10.80;81.80;99804.60;213931;1274;141281;-62
2022/05/26 02:43:29;;;;;;;13.10;10.10;;;;;;;10.85;82.39;99802.14;214048;1274;141094;-62
2022/05/26 02:49:15;;;;;;;10.20;9.20;;;;;;;10.86;82.30;99807.07;215084;1273;140829;-63
2022/05/26 02:54:27;;;;;;;10.20;9.30;;;;;;;10.90;82.21;99805.61;215345;1273;140476;-63
2022/05/26 02:59:46;;;;;;;9.70;8.70;;;;;;;10.97;82.05;99806.20;216124;1274;142302;-62
2022/05/26 03:04:58;;;;;;;8.60;7.90;;;;;;;11.07;82.28;99803.13;216188;1273;140271;-63
2022/05/26 03:10:07;;;;;;;9.70;8.60;;;;;;;11.10;81.81;99798.88;216232;1274;139981;-62
2022/05/26 03:15:11;;;;;;;8.30;7.50;;;;;;;11.19;82.02;99800.85;215294;1274;139294;-61
2022/05/26 03:20:22;;;;;;;10.40;9.20;;;;;;;11.30;81.90;99802.25;215071;1274;143222;-64
2022/05/26 03:25:27;;;;;;;10.80;9.90;;;;;;;11.41;81.66;99802.30;215928;1274;139960;-62
2022/05/26 03:30:30;;;;;;;9.90;8.40;;;;;;;11.50;81.74;99803.80;214053;1273;140414;-62
2022/05/26 03:41:06;;;;;;;9.60;8.70;;;;;;;11.72;81.17;99815.46;213948;1274;140956;-62
2022/05/26 03:46:11;;;;;;;9.20;8.20;;;;;;;11.80;80.97;99822.21;214117;1272;139536;-62
2022/05/26 03:51:16;;;;;;;10.50;9.10;;;;;;;11.94;81.42;99819.23;213800;1274;165047;-63
2022/05/26 03:56:20;;;;;;;9.40;8.10;;;;;;;12.35;81.14;99813.81;214121;1274;139681;-61
2022/05/26 04:01:24;;;;;;;8.90;7.50;;;;;;;12.57;80.74;99816.33;213943;1274;140542;-62
2022/05/26 04:06:28;;;;;;;9.20;8.20;;;;;;;12.66;80.76;99824.60;213613;1274;139008;-63
2022/05/26 04:11:31;;;;;;;7.40;6.70;;;;;;;12.81;80.40;99821.74;213794;1274;140298;-63
2022/05/26 04:16:36;;;;;;;9.30;8.40;;;;;;;12.82;79.97;99815.88;213837;1273;224001;-63
2022/05/26 04:22:15;;;;;;;8.60;7.90;;;;;;;13.29;79.88;99818.10;214034;1274;140968;-63
2022/05/26 04:27:06;;;;;;;7.00;6.30;;;;;;;14.36;78.16;99807.09;215278;1274;140486;-62
2022/05/26 04:32:10;;;;;;;7.10;6.50;;;;;;;15.20;77.65;99803.34;214658;1273;140434;-63
2022/05/26 04:37:18;;;;;;;7.40;6.40;;;;;;;17.75;74.34;99803.83;214806;1274;139902;-62
2022/05/26 04:42:23;;;;;;;7.00;6.40;;;;;;;18.11;73.99;99810.55;215692;1274;139899;-61
2022/05/26 04:47:28;;;;;;;8.40;6.10;;;;;;;18.11;73.13;99811.14;215709;1274;139492;-63
2022/05/26 04:52:33;;;;;;;7.30;6.40;;;;;;;17.73;71.93;99817.58;216169;1274;141053;-62
2022/05/26 04:57:37;;;;;;;6.70;6.00;;;;;;;17.65;71.59;99820.90;216153;1273;140665;-63
2022/05/26 05:02:41;;;;;;;7.50;6.30;;;;;;;18.04;70.51;99824.56;216040;1274;141678;-63
2022/05/26 05:07:46;;;;;;;7.60;5.10;;;;;;;19.05;69.54;99824.98;215059;1274;140521;-63
2022/05/26 05:12:50;;;;;;;6.90;6.40;;;;;;;20.60;67.44;99814.31;215023;1274;142570;-63
2022/05/26 05:17:55;;;;;;;6.00;5.60;;;;;;;23.75;64.24;99816.43;215635;1274;140210;-64
2022/05/26 05:23:04;;;;;;;5.20;4.70;;;;;;;27.44;60.33;99824.50;214729;1274;139399;-65
2022/05/26 05:28:35;;;;;;;5.00;4.60;;;;;;;27.24;58.64;99825.20;214351;1273;139162;-65
2022/05/26 05:33:44;;;;;;;5.20;4.70;;;;;;;25.62;57.56;99828.27;213544;1274;140281;-67
2022/05/26 05:38:49;;;;;;;5.20;4.80;;;;;;;24.12;57.74;99828.52;214188;1274;139938;-64
2022/05/26 05:43:54;;;;;;;5.10;4.70;;;;;;;22.97;58.71;99834.64;214977;1273;140137;-62
2022/05/26 05:49:04;;;;;;;6.00;4.90;;;;;;;22.43;59.18;99837.27;215284;1273;139349;-64
2022/05/26 05:54:08;;;;;;;4.90;4.50;;;;;;;22.76;59.33;99828.52;214570;1272;139511;-64
2022/05/26 05:59:13;;;;;;;5.20;4.70;;;;;;;22.98;58.61;99824.82;215190;1274;140756;-62
2022/05/26 06:04:18;;;;;;;6.90;5.20;;;;;;;23.02;58.29;99821.66;215175;1273;141223;-63
2022/05/26 06:09:23;;;;;;;5.10;4.70;;;;;;;24.08;57.93;99823.46;215001;1274;141330;-64
2022/05/26 06:14:28;;;;;;;5.10;4.60;;;;;;;25.56;55.65;99822.96;214784;1274;140822;-62
2022/05/26 06:19:31;;;;;;;4.20;3.80;;;;;;;25.28;55.28;99824.77;214047;1274;141357;-62
2022/05/26 06:24:36;;;;;;;5.90;4.30;;;;;;;25.29;55.39;99817.97;214587;1272;143264;-63
2022/05/26 06:29:49;;;;;;;6.30;3.00;;;;;;;25.05;54.60;99814.09;213905;1273;140548;-62
2022/05/26 06:40:17;;;;;;;3.40;2.70;;;;;;;25.81;53.79;99820.08;215023;1274;140295;-63
2022/05/26 06:45:20;;;;;;;4.40;3.50;;;;;;;26.29;52.70;99820.84;216062;1274;140069;-63
2022/05/26 06:50:23;;;;;;;4.60;3.60;;;;;;;26.31;52.56;99815.75;215007;1274;140098;-63
2022/05/26 06:55:27;;;;;;;4.10;2.80;;;;;;;26.15;51.58;99811.02;216259;1273;140720;-65
2022/05/26 07:00:31;;;;;;;2.40;2.30;;;;;;;25.97;51.05;99804.52;216199;1274;140631;-65
2022/05/26 07:05:37;;;;;;;6.30;3.20;;;;;;;25.85;50.73;99803.41;216216;1274;140814;-64
2022/05/26 07:10:41;;;;;;;3.80;2.40;;;;;;;25.98;50.55;99800.58;214147;1271;140116;-64
2022/05/26 07:15:46;;;;;;;3.60;2.60;;;;;;;26.10;50.51;99801.26;214052;1274;140403;-62
2022/05/26 07:20:52;;;;;;;3.50;3.20;;;;;;;26.27;50.41;99800.61;214977;1274;140218;-62
2022/05/26 07:25:56;;;;;;;3.20;3.00;;;;;;;26.37;50.63;99800.19;214669;1274;139728;-63
2022/05/26 07:31:01;;;;;;;5.80;3.20;;;;;;;26.33;49.92;99804.35;214911;1274;139847;-63
2022/05/26 07:36:06;;;;;;;3.20;2.90;;;;;;;26.08;49.39;99801.88;214062;1273;141223;-64
2022/05/26 07:41:25;;;;;;;4.80;3.10;;;;;;;25.94;49.82;99807.39;213931;1274;139417;-61
2022/05/26 07:46:33;;;;;;;3.00;2.30;;;;;;;25.80;49.76;99803.84;214122;1274;140834;-64
2022/05/26 07:51:37;;;;;;;5.10;2.40;;;;;;;25.56;49.73;99805.81;213786;1274;139997;-63
2022/05/26 07:56:45;;;;;;;3.50;3.20;;;;;;;25.37;49.77;99804.77;213173;1274;138875;-63
2022/05/26 08:01:50;;;;;;;2.50;2.30;;;;;;;25.26;50.15;99805.73;213387;1274;139170;-64
2022/05/26 08:06:54;;;;;;;3.50;3.30;;;;;;;25.01;49.65;99804.52;213910;1274;139554;-63
2022/05/26 08:11:58;;;;;;;3.60;3.00;;;;;;;24.71;49.67;99802.42;213822;1273;140482;-64
2022/05/26 08:17:03;;;;;;;4.90;3.50;;;;;;;24.57;49.87;99795.48;214261;1274;141651;-63
2022/05/26 08:22:07;;;;;;;4.50;3.50;;;;;;;24.28;50.89;99796.09;214437;1273;141070;-63
2022/05/26 08:27:12;;;;;;;2.80;2.60;;;;;;;24.86;51.18;99794.00;215087;1272;141313;-63
2022/05/26 08:32:18;;;;;;;2.30;2.10;;;;;;;25.04;50.39;99786.98;215461;1274;141537;-64
2022/05/26 08:37:22;;;;;;;6.00;2.20;;;;;;;25.33;50.07;99785.91;215949;1274;139523;-64
2022/05/26 08:42:28;;;;;;;3.30;2.60;;;;;;;25.31;49.19;99787.98;214503;1274;141112;-63
2022/05/26 08:47:39;;;;;;;3.70;1.80;;;;;;;24.75;48.26;99799.86;215878;1273;141552;-65
2022/05/26 08:52:51;;;;;;;2.10;2.00;;;;;;;24.72;48.59;99793.59;216308;1273;140999;-64
2022/05/26 08:58:01;;;;;;;3.50;1.90;;;;;;;24.84;49.05;99790.35;216083;1274;140355;-64
2022/05/26 09:03:21;;;;;;;1.70;1.50;;;;;;;24.82;48.05;99795.46;215815;1273;139029;-63
2022/05/26 09:13:54;;;;;;;1.20;1.10;;;;;;;24.87;47.24;99801.77;213794;1273;140143;-65
2022/05/26 09:19:08;;;;;;;2.00;0.70;;;;;;;24.58;46.30;99803.36;214215;1274;141033;-66
2022/05/26 09:24:25;;;;;;;4.40;1.40;;;;;;;24.63;46.45;99804.82;214451;1274;140062;-66
2022/05/26 09:29:35;;;;;;;2.50;0.90;;;;;;;24.63;46.01;99803.57;215280;1274;140474;-67
2022/05/26 09:34:40;;;;;;;5.40;1.20;;;;;;;24.74;45.26;99801.06;213874;1274;141616;-65
2022/05/26 09:39:48;;;;;;;3.50;1.70;;;;;;;24.62;45.14;99798.53;214883;1274;141129;-65
2022/05/26 09:45:02;;;;;;;0.90;0.90;;;;;;;24.43;44.98;99804.14;214118;1274;158901;-64
2022/05/26 09:50:28;;;;;;;1.10;0.90;;;;;;;24.48;45.24;99803.00;214003;1274;140494;-63
2022/05/26 09:55:40;;;;;;;4.20;1.20;;;;;;;24.67;44.46;99800.38;215350;1274;140228;-65
2022/05/26 10:01:13;;;;;;;1.10;0.80;;;;;;;24.80;45.02;99798.58;214624;1273;140143;-65
2022/05/26 10:06:53;;;;;;;1.50;0.90;;;;;;;24.97;44.92;99804.27;214582;1273;142436;-64
2022/05/26 10:12:29;;;;;;;0.90;0.90;;;;;;;25.15;44.59;99796.27;213296;1274;140727;-65
2022/05/26 10:17:48;;;;;;;4.80;1.20;;;;;;;25.24;44.16;99807.25;215699;1274;140570;-64
2022/05/26 10:23:17;;;;;;;3.20;1.30;;;;;;;25.13;43.37;99816.31;214849;1273;141179;-64
2022/05/26 10:28:59;;;;;;;2.40;1.10;;;;;;;24.66;43.19;99811.50;214238;1274;140369;-64
2022/05/26 10:34:30;;;;;;;8.10;1.60;;;;;;;23.99;43.28;99815.60;214742;1274;142655;-63
2022/05/26 10:39:59;;;;;;;2.20;1.10;;;;;;;23.83;44.59;99815.81;215207;1274;140855;-62
2022/05/26 10:45:17;;;;;;;4.50;1.40;;;;;;;24.19;44.69;99809.08;215927;1273;150540;-65
2022/05/26 10:50:47;;;;;;;4.50;0.80;;;;;;;24.44;43.99;99815.33;216387;1274;140798;-62
2022/05/26 10:56:18;;;;;;;1.60;1.40;;;;;;;24.22;42.89;99811.73;215708;1274;685257;-64
2022/05/26 11:01:35;;;;;;;1.20;1.20;;;;;;;23.90;43.40;99817.75;215673;1274;140518;-65
2022/05/26 11:06:43;;;;;;;4.00;1.80;;;;;;;23.72;43.55;99818.52;215561;1274;140103;-63
2022/05/26 11:11:52;;;;;;;13.90;3.50;;;;;;;23.61;43.93;99827.19;215039;1274;139251;-64
2022/05/26 11:22:22;;;;;;;14.40;5.30;;;;;;;23.97;44.00;99830.59;215358;1274;139236;-64
2022/05/26 11:27:48;;;;;;;7.60;3.00;;;;;;;23.94;43.75;99829.12;214218;1273;140572;-64
2022/05/26 11:38:27;;;;;;;1.70;1.40;;;;;;;23.26;44.15;99831.60;213201;1274;141111;-64
2022/05/26 11:43:43;;;;;;;2.50;1.50;;;;;;;23.19;44.59;99828.30;213686;1274;140136;-65
2022/05/26 11:48:48;;;;;;;2.60;2.10;;;;;;;22.75;44.40;99836.38;214370;1273;139921;-64
2022/05/26 11:53:53;;;;;;;1.50;1.40;;;;;;;22.26;45.32;99836.61;213757;1274;140418;-63
2022/05/26 11:59:42;;;;;;;2.70;1.40;;;;;;;22.32;46.07;99829.70;213900;1274;141675;-64
2022/05/26 12:04:49;;;;;;;7.00;3.10;;;;;;;22.69;46.28;99822.05;213940;1273;140572;-64
2022/05/26 12:09:58;;;;;;;2.00;1.50;;;;;;;22.86;45.66;99811.79;215400;1274;141629;-64
2022/05/26 12:18:21;;;;;;;1.60;1.40;;;;;;;22.34;45.85;99817.80;212428;1315;656207;-65
2022/05/26 12:23:27;;;;;;;25.80;7.40;;;;;;;22.12;45.77;99809.42;213339;1286;138339;-64
2022/05/26 12:28:31;;;;;;;1.40;1.30;;;;;;;22.44;45.91;99808.50;212731;1285;354743;-64
2022/05/26 12:33:37;;;;;;;5.90;2.70;;;;;;;22.61;45.84;99795.39;211997;1286;139015;-65
2022/05/26 12:39:14;;;;;;;2.40;2.10;;;;;;;22.57;45.67;99783.39;212840;1285;140497;-64
2022/05/26 12:44:48;;;;;;;8.70;1.50;;;;;;;22.48;45.54;99778.73;213893;1285;139673;-65
2022/05/26 12:50:10;;;;;;;34.40;5.80;;;;;;;22.55;45.75;99781.59;213895;1285;139354;-65
2022/05/26 12:55:27;;;;;;;1.60;1.40;;;;;;;22.70;45.65;99772.77;212902;1286;139240;-64
2022/05/26 13:00:47;;;;;;;8.30;2.40;;;;;;;23.02;45.29;99774.58;213625;1284;139006;-64
2022/05/26 13:06:09;;;;;;;4.30;1.60;;;;;;;22.70;45.04;99771.14;213198;1285;138693;-63
2022/05/26 13:11:21;;;;;;;3.30;1.60;;;;;;;22.17;44.75;99779.42;212234;1285;139802;-64
2022/05/26 13:16:38;;;;;;;1.60;1.50;;;;;;;21.49;44.91;99782.44;212889;1285;140308;-64
2022/05/26 13:21:47;;;;;;;4.60;1.80;;;;;;;20.95;45.51;99785.29;211043;1286;140218;-64
2022/05/26 13:27:10;;;;;;;3.80;1.50;;;;;;;20.57;46.08;99786.69;212183;1286;139620;-64
2022/05/26 13:37:46;;;;;;;2.60;1.10;;;;;;;21.01;47.25;99774.73;212204;1286;139234;-63
2022/05/26 13:42:52;;;;;;;1.90;1.50;;;;;;;21.17;47.15;99766.29;211652;1286;138957;-64
2022/05/26 13:48:28;;;;;;;2.30;1.90;;;;;;;21.12;47.12;99771.98;211676;1286;140423;-63
2022/05/26 13:53:41;;;;;;;13.20;1.40;;;;;;;20.89;47.43;99776.70;211664;1286;141432;-63
2022/05/26 13:58:46;;;;;;;1.60;0.90;;;;;;;20.87;47.81;99783.40;211280;1286;140321;-64
2022/05/26 14:03:58;;;;;;;1.30;0.90;;;;;;;20.71;48.10;99799.91;212735;1285;142017;-63
2022/05/26 14:09:26;;;;;;;4.90;1.30;;;;;;;20.30;48.58;99816.80;211381;1286;141005;-63
2022/05/26 14:14:43;;;;;;;2.50;1.60;;;;;;;19.70;49.81;99828.84;213413;1285;139494;-65
2022/05/26 14:19:48;;;;;;;4.50;1.30;;;;;;;19.26;50.99;99834.23;211801;1286;141272;-63
2022/05/26 14:24:53;;;;;;;4.30;1.40;;;;;;;18.95;51.71;99831.64;212744;1284;139288;-64
2022/05/26 14:30:23;;;;;;;3.00;1.80;;;;;;;18.82;52.43;99829.62;212431;1287;139163;-63
2022/05/26 14:35:27;;;;;;;1.30;1.20;;;;;;;19.26;52.91;99820.94;213975;1284;139609;-62
2022/05/26 14:40:31;;;;;;;2.00;1.30;;;;;;;19.80;52.80;99814.26;214086;1284;140209;-64
2022/05/26 14:45:41;;;;;;;1.10;1.10;;;;;;;20.09;52.21;99813.70;213834;1284;139767;-64
2022/05/26 14:50:46;;;;;;;1.20;1.20;;;;;;;20.15;51.82;99800.69;215304;1277;139685;-63
2022/05/26 14:55:50;;;;;;;1.00;1.00;;;;;;;20.15;51.43;99793.74;215731;1274;230324;-65
2022/05/26 15:00:56;;;;;;;3.20;1.80;;;;;;;20.19;51.23;99793.55;215443;1275;140327;-62
2022/05/26 15:06:01;;;;;;;5.60;1.40;;;;;;;20.44;51.28;99785.21;215237;1276;141593;-63
2022/05/26 15:11:06;;;;;;;1.40;1.30;;;;;;;20.60;50.92;99782.85;213957;1276;139227;-62
2022/05/26 15:16:14;;;;;;;2.10;1.00;;;;;;;20.53;50.16;99786.11;213067;1276;161269;-65
2022/05/26 15:21:18;;;;;;;0.90;0.80;;;;;;;20.19;49.83;99782.25;213861;1276;142921;-64
2022/05/26 15:26:24;;;;;;;0.80;0.80;;;;;;;20.03;49.68;99785.11;213639;1276;140217;-64
2022/05/26 15:31:28;;;;;;;;;;;;;;;19.96;49.67;99789.45;214520;1276;139388;-65
2022/05/26 15:36:33;;;;;;;2.10;1.50;;;;;;;20.00;49.80;99785.00;214689;1276;126965;-63
2022/05/26 15:41:38;;;;;;;1.50;1.40;;;;;;;20.31;50.02;99785.77;213464;1276;164066;-63
2022/05/26 15:46:46;;;;;;;1.50;1.30;;;;;;;20.28;49.57;99781.61;213332;1276;140791;-63
2022/05/26 15:51:51;;;;;;;3.00;1.20;;;;;;;20.14;49.65;99777.30;213444;1276;140076;-63
2022/05/26 15:56:57;;;;;;;1.60;1.30;;;;;;;19.88;49.68;99781.47;213893;1276;140545;-63
2022/05/26 16:02:02;;;;;;;1.60;1.60;;;;;;;19.66;49.96;99775.31;214460;1276;140689;-62
2022/05/26 16:07:08;;;;;;;1.70;1.60;;;;;;;19.45;50.12;99790.64;214170;1276;139131;-63
2022/05/26 16:12:16;;;;;;;2.20;1.60;;;;;;;19.25;50.53;99795.65;215056;1276;140140;-62
2022/05/26 16:17:24;;;;;;;1.90;1.60;;;;;;;19.02;50.86;99803.08;214479;1276;140452;-62
2022/05/26 16:22:32;;;;;;;1.30;1.30;;;;;;;18.79;51.23;99799.13;213653;1276;139962;-62
2022/05/26 16:27:37;;;;;;;1.60;1.50;;;;;;;18.65;51.50;99801.50;214471;1275;139436;-62
2022/05/26 16:32:45;;;;;;;4.20;1.40;;;;;;;18.54;51.81;99804.39;214550;1275;140006;-63
2022/05/26 16:37:54;;;;;;;1.70;1.60;;;;;;;18.39;52.01;99802.42;215877;1274;140745;-63
2022/05/26 16:43:00;;;;;;;1.50;1.40;;;;;;;18.30;52.50;99797.28;215097;1276;140641;-64
2022/05/26 16:48:04;;;;;;;2.20;1.60;;;;;;;18.32;52.63;99801.90;215653;1276;139529;-65
2022/05/26 16:53:09;;;;;;;1.60;1.60;;;;;;;18.47;52.73;99805.25;215207;1276;139774;-62
2022/05/26 16:58:16;;;;;;;2.50;2.30;;;;;;;18.75;52.88;99799.23;213527;1276;139082;-61
2022/05/26 17:03:21;;;;;;;2.30;1.90;;;;;;;18.84;52.84;99792.98;215100;1276;139360;-63
2022/05/26 17:08:29;;;;;;;3.60;1.90;;;;;;;18.81;52.75;99790.41;213162;1276;139419;-63
2022/05/26 17:24:19;;;;;;;3.70;2.00;;;;;;;18.34;53.60;99782.40;213679;1276;138875;-65
2022/05/26 17:29:24;;;;;;;2.30;2.10;;;;;;;18.26;53.99;99783.51;213796;1276;138885;-64
2022/05/26 17:34:27;;;;;;;1.70;1.30;;;;;;;18.17;54.14;99788.49;214290;1276;139810;-64
2022/05/26 17:39:32;;;;;;;4.80;2.20;;;;;;;18.07;54.51;99789.10;213660;1276;140847;-63
2022/05/26 17:44:40;;;;;;;2.00;1.90;;;;;;;17.99;54.72;99786.17;213385;1276;140300;-64
2022/05/26 17:49:45;;;;;;;3.20;2.20;;;;;;;17.89;54.95;99787.31;213723;1276;139801;-66
2022/05/26 17:55:02;;;;;;;2.10;1.90;;;;;;;17.79;55.39;99788.19;214219;1276;231354;-65
2022/05/26 18:05:33;;;;;;;3.10;2.80;;;;;;;17.58;55.83;99782.01;216127;1276;126289;-62
2022/05/26 18:10:36;;;;;;;1.20;1.10;;;;;;;17.51;56.19;99778.97;212871;1276;140896;-62
2022/05/26 18:15:41;;;;;;;4.90;1.90;;;;;;;17.45;56.32;99777.16;213753;1278;142956;-63
2022/05/26 18:20:46;;;;;;;2.30;2.10;;;;;;;17.39;56.53;99776.67;215077;1277;139246;-62
2022/05/26 18:25:51;;;;;;;3.90;2.00;;;;;;;17.31;56.51;99776.67;214844;1277;139925;-63
2022/05/26 18:31:09;;;;;;;8.70;2.20;;;;;;;17.24;56.52;99777.83;214522;1277;140520;-61
2022/05/26 18:36:15;;;;;;;2.40;2.20;;;;;;;17.21;56.46;99775.74;215693;1277;140784;-62
2022/05/26 18:41:20;;;;;;;4.00;2.20;;;;;;;17.19;56.33;99781.03;215774;1277;141303;-63
2022/05/26 18:46:24;;;;;;;2.20;1.70;;;;;;;17.20;56.34;99780.33;215761;1277;140182;-62
2022/05/26 18:51:34;;;;;;;1.70;1.60;;;;;;;17.19;56.11;99782.53;215788;1277;140039;-63
2022/05/26 18:56:38;;;;;;;2.20;1.80;;;;;;;17.18;56.20;99786.27;215041;1277;140663;-64
2022/05/26 19:01:43;;;;;;;2.10;1.90;;;;;;;17.18;56.14;99789.23;215052;1277;139364;-61
2022/05/26 19:06:47;;;;;;;2.70;1.90;;;;;;;17.18;56.13;99790.57;214252;1277;139757;-64
2022/05/26 19:11:54;;;;;;;1.50;1.40;;;;;;;17.14;56.25;99793.45;214254;1277;140118;-63
2022/05/26 19:17:09;;;;;;;3.50;2.60;;;;;;;17.10;56.39;99801.89;214088;1277;139086;-62
2022/05/26 19:22:17;;;;;;;1.50;1.40;;;;;;;17.04;56.59;99804.38;213551;1277;139429;-62
2022/05/26 19:27:23;;;;;;;2.70;2.00;;;;;;;17.01;56.66;99801.54;213519;1277;139426;-61
2022/05/26 19:32:28;;;;;;;2.60;2.40;;;;;;;16.98;56.83;99805.73;213615;1277;139764;-63
2022/05/26 19:37:32;;;;;;;3.40;2.40;;;;;;;16.91;57.08;99808.02;214024;1277;138998;-61
2022/05/26 19:42:38;;;;;;;2.40;2.30;;;;;;;16.84;57.14;99808.96;213372;1277;138892;-62
2022/05/26 19:47:43;;;;;;;1.60;1.50;;;;;;;16.80;57.11;99813.56;214334;1277;139257;-63
2022/05/26 19:52:48;;;;;;;3.10;2.30;;;;;;;16.79;57.29;99815.45;214009;1277;139129;-63
2022/05/26 19:57:54;;;;;;;3.60;2.30;;;;;;;16.76;57.28;99817.62;214131;1277;139146;-62
2022/05/26 20:03:01;;;;;;;5.90;2.70;;;;;;;16.72;57.32;99817.41;214232;1277;139807;-62
2022/05/26 20:08:07;;;;;;;3.40;2.70;;;;;;;16.69;57.53;99817.36;213063;1277;139102;-62
2022/05/26 20:19:59;;;;;;;2.30;2.10;;;;;;;16.61;57.61;99818.09;214555;1276;140122;-65
2022/05/26 20:25:06;;;;;;;4.50;2.70;;;;;;;16.60;57.56;99814.59;213154;1277;141077;-64
2022/05/26 20:30:11;;;;;;;4.40;2.40;;;;;;;16.58;57.54;99822.40;214114;1277;140200;-66
2022/05/26 20:35:19;;;;;;;2.30;2.10;;;;;;;16.52;57.67;99815.68;214215;1278;139870;-63
2022/05/26 20:40:23;;;;;;;2.70;2.40;;;;;;;16.46;57.84;99814.37;213614;1277;141346;-64
2022/05/26 20:45:27;;;;;;;2.90;2.70;;;;;;;16.43;57.77;99819.52;212954;1277;139750;-63
2022/05/26 20:50:33;;;;;;;2.90;2.60;;;;;;;16.39;57.92;99822.12;213299;1277;139341;-62
2022/05/26 20:55:38;;;;;;;2.90;2.20;;;;;;;16.36;57.85;99829.05;212786;1277;139689;-63
2022/05/26 21:00:43;;;;;;;2.70;2.00;;;;;;;16.35;57.98;99835.56;214451;1277;139167;-61
2022/05/26 21:05:47;;;;;;;2.50;2.10;;;;;;;16.33;58.00;99832.65;213700;1277;139593;-62
2022/05/26 21:10:52;;;;;;;3.10;2.90;;;;;;;16.31;58.23;99826.89;212770;1281;139509;-63
2022/05/26 21:15:57;;;;;;;3.00;2.70;;;;;;;16.29;58.03;99830.77;214312;1277;140763;-63
2022/05/26 21:21:02;;;;;;;3.20;3.00;;;;;;;16.26;58.37;99835.08;213066;1277;140022;-63
2022/05/26 21:26:06;;;;;;;4.50;2.50;;;;;;;16.24;58.30;99830.39;213874;1277;139856;-62
2022/05/26 21:31:11;;;;;;;3.40;3.10;;;;;;;16.20;58.57;99831.42;214959;1277;139658;-62
2022/05/26 21:36:15;;;;;;;2.80;2.50;;;;;;;16.18;58.65;99826.70;214983;1277;140118;-62
2022/05/26 21:41:21;;;;;;;3.00;2.50;;;;;;;16.15;58.77;99827.61;214010;1277;140436;-63
2022/05/26 21:46:24;;;;;;;3.10;2.80;;;;;;;16.10;59.08;99829.06;215544;1277;140271;-62
2022/05/26 21:51:46;;;;;;;7.80;3.00;;;;;;;16.07;59.30;99824.38;215540;1277;140089;-63
2022/05/26 21:56:50;;;;;;;3.30;3.10;;;;;;;16.02;59.35;99821.19;215802;1276;139719;-63
